Relevés horaires St-Hubert (Belgique)


Relevés horaires à St-Hubert - Jeudi 23 Juill. 2020
Heure UTC1 Température [°C] Vent [km/h] Hum. [%] Pres.4 [hPa] Visi. [Km] Nébu. [octa] Préc.5 [mm] Cond.
2m. Res. Ros. Dir.2 Vit. Moy. Raf.3
23:00 16.3 16.3 6.7 NO 1.9 3.7 5.6 53 1014.3(-0.4/3h) 45 0/8 -- --
22:00 16.6 16.6 8.2 NO 1.9 3.7 5.6 58 1014.4(0.2/3h) 45 0/8 -- Ciel clair
21:00 16.8 16.8 9.4 O 3.7 3.7 5.6 62 1014.7(-0.1/3h) 45 0/8 -- --
20:00 16.9 16.9 9.3 OSO 3.7 3.7 5.6 61 1014.5(-0.6/3h) 45 0/8 -- --
19:00 19.2 19.2 8.1 SO 1.9 3.7 3.7 49 1014(-1.0/3h) 45 0/8 -- --
18:00 19.9 19.9 11.0 ONO 3.7 5.6 9.3 56 1014(-1.3/3h) 45 0/8 0/12h
--
17:00 20.5 20.5 8.3 O 1.9 3.7 5.6 45 1014.4(-1.3/3h) 40 0/8 -- Ciel clair
16:00 20.7 20.7 6.6 O 1.9 3.7 9.3 40 1014.7(-1.7/3h) 35 0/8 -- --
15:00 21.4 21.4 6.7 N 3.7 5.6 9.3 39 1015.2(-1.3/3h) 35 0/8 -- --
14:00 22.0 22.0 7.0 NNO 1.9 5.6 9.3 38 1015.5(-1.3/3h) 35 0/8 -- --
13:00 21.3 21.3 9.0 O 3.7 3.7 7.4 45 1016.3(-0.9/3h) 30 0/8 -- --
12:00 20.7 20.7 6.4 O 3.7 7.4 11.1 39 1016.7(-0.9/3h) 30 0/8 0/6h
--
11:00 20.0 20.0 7.3 NNO 1.9 3.7 9.3 44 1017.3(-0.9/3h) 35 0/8 -- --
10:00 18.7 18.7 6.8 NNO 1.9 5.6 9.3 46 1017.9(-0.2/3h) 30 0/8 -- --
09:00 17.0 17.0 6.1 N 5.6 7.4 11.1 49 1018.5(0.0/3h) 35 0/8 -- --
08:00 15.5 15.5 5.9 NNE 7.4 7.4 11.1 53 1019(-0.1/3h) 35 0/8 -- --
07:00 14.0 14.0 7.4 NNE 5.6 5.6 7.4 64 1019.2(-0.4/3h) 35 0/8 -- --
06:00 12.0 12.0 6.9 NE 3.7 7.4 9.3 71 1019.7(-0.6/3h) 40 0/8 0/12h
--
05:00 9.2 9.2 6.9 NE 3.7 5.6 7.4 86 1020.6(-1.0/3h) 40 0/8 -- --
04:00 9.1 8.6 6.2 ENE 5.6 5.6 7.4 82 1020.8(-0.8/3h) 45 0/8 -- --
03:00 8.6 8 6.0 ENE 5.6 7.4 9.3 84 1021.1(-0.9/3h) 45 0/8 -- --
02:00 8.2 7.5 6.1 ENE 5.6 5.6 9.3 87 1021.9(-0.4/3h) 45 0/8 -- --
01:00 10.1 9.7 6.5 ENE 5.6 5.6 9.3 78 1021.5(-0.3/3h) 45 0/8 -- --
00:00 11.0 10.7 6.5 ENE 5.6 9.3 11.1 74 1021.5(-0.2/3h) 45 0/8 0/6h
0/24h
--

1 Coordinated Universal Time. Actuellement il est 03:00 locale et 01:00 UTC.

2 Le vent souffle depuis la direction indiquée vers la direction oposée.

3 Les rafales max. sont disponible 40 min après l'heure du relevé.

4 Pour les stations d'altitude (plus de 600m) le géopotentiel du niveau le plus proche de la pression obligatoire est indiqué.

5 Les stations disposant d'un diffuseur peuvent indiquer "trace". Cela signifie que des précipitations ont touchés le sol mais que la quantité est inférieure à 0.1 mm.

Récapitulatif de la journée
Température [°C] Vent [km/h] Ensoleillement4 [h] Precipitations totale5 [mm] Pression [Hpa]
Min1 Max.2 Moy.3 Max. Min Max.
7.0 22.2 5.4 11.1 0 h 0 min 0 1014.0 1021.9

1 Température minimale relevée entre 18:00 UTC la veille et 18:00 UTC le jour donné.

2 Température maximale relevée entre 06:00 UTC le jour donné et 06:00 UTC le lendemain.

3 Vent moyen de la journée basé sur les relevés horaires.

4 Ensoleillement en heures relevé entre 06:00 UTC la veille et 06:00 UTC le jour donné.

5 Précipitations totales tombées entre 06:00 UTC la jour donné et 06:00 UTC le lendemain.

Graphiques horaires